Tiempo atmosférico en la estación meteorológica de Villaeles De Valdavia, Palencia (908 m.)



Fecha
DESCASC
Temp. máxima en grados centígrados (hora)
DESCASC
Temp. mínima en grados centígrados (hora)
DESCASC
Temp. media en grados centígrados
DESCASC
Racha de viento máxima en m/sg (hora)
DESCASC
Velocidad máxima media en intervalos de 10 minutos(hora)
DESCASC
Precipitaciones diarias en mm
DESCASC
Precipitaciones de 00:00 a 06:00 en mm
DESCASC
Precipitaciones de 06:00 a 12:00 en mm
DESCASC
Precipitaciones de 12:00 a 18:00 en mm
DESCASC
Precipitaciones de 18:00 a 24:00 en mm
DESCASC
18-11-2019 8.6 (14:00) -1.7 (00:30) 3.5 7.78 (14:40) 4.17 (14:40) 0.8 0 0 0.6 0.2
17-11-2019 7.4 (16:00) -1.2 (23:59) 3.1 9.17 (13:20) 6.67 (13:20) 0.2 0 0.2 0 0
16-11-2019 5.9 (15:20) -3.6 (07:50) 1.2 11.67 (12:40) 8.06 (12:30) 0 0 0 0 0
15-11-2019 4.5 (14:40) -1 (23:50) 1.8 13.89 (13:40) 7.78 (13:10) 1.4 0.4 1 0 0
14-11-2019 6.1 (00:00) -0.8 (-00:0) 2.6 13.61 (02:40) 8.61 (01:20) 4.6 4.2 0 0.4 0
13-11-2019 11.5 (16:20) 3.7 (00:00) 7.6 13.89 (20:50) 9.17 (20:50) 7.8 7.8 0 0 0
12-11-2019 9.2 (12:40) -0.8 (-00:0) 4.2 9.17 (19:30) 6.67 (19:50) 5.2 0 0 1.4 3.8
11-11-2019 10.1 (13:40) -1.5 (23:30) 4.3 8.33 (13:50) 4.72 (13:50) 0 0 0 0 0
10-11-2019 5.5 (16:10) 0.6 (00:00) 3.1 10 (05:20) 6.39 (10:50) 1.4 0 1 0.2 0.2
09-11-2019 8.8 (16:40) 0.6 (00:00) 4.7 9.17 (14:30) 6.39 (04:10) 0.6 0 0.6 0 0
08-11-2019 7.4 (15:50) 0.4 (02:00) 3.9 14.72 (12:40) 9.17 (12:40) 0.4 0 0.4 0 0
07-11-2019 8.6 (13:40) 0.5 (00:00) 4.6 15.83 (14:10) 10.56 (14:10) 0 0 0 0 0
06-11-2019 11 (15:20) 2.8 (00:00) 6.9 10.28 (15:40) 6.94 (15:20) 0.2 0 0 0 0.2
05-11-2019 9.3 (14:10) 2.9 (00:00) 6.1 14.72 (12:00) 8.89 (12:00) 3.8 0 0.8 3 0
04-11-2019 12.8 (14:50) 5 (00:00) 8.9 17.78 (01:20) 10.83 (15:20) 4.8 0.8 3.6 0.4 0
03-11-2019 12.6 (15:10) 5.1 (00:00) 8.9 23.61 (04:50) 15.56 (04:50) 1.4 0.8 0 0 0.6
02-11-2019 13 (12:30) 9.1 (00:00) 11.1 16.94 (23:10) 10.83 (23:10) 0.2 0 0 0 0.2
01-11-2019 17.2 (15:10) 12.5 (00:00) 14.9 15.28 (13:40) 8.89 (15:20) 0.8 0 0.2 0.6 0
31-10-2019 18.6 (14:10) 10 (06:50) 14.3 8.33 (17:00) 5.28 (17:00) 0 0 0 0 0
30-10-2019 14.2 (16:50) 6.8 (00:00) 10.5 8.89 (17:40) 5 (14:00) 0.4 0 0 0 0.4
29-10-2019 17.1 (16:50) 6.9 (00:00) 12 8.89 (14:40) 5.56 (15:30) 0 0 0 0 0
28-10-2019 18.8 (15:20) 7.3 (00:00) 13 8.33 (15:40) 5 (13:20) 0 0 0 0 0
27-10-2019 17.2 (15:30) 5.6 (00:00) 11.4 4.72 (15:20) 2.78 (17:00) 0 0 0 0 0
26-10-2019 18.7 (17:10) 2.1 (00:00) 10.4 7.22 (15:40) 4.72 (15:40) 0 0 0 0 0
25-10-2019 16.2 (17:30) 6.2 (00:00) 11.2 6.67 (16:40) 4.44 (15:40) 0 0 0 0 0
24-10-2019 11.5 (15:30) 5 (00:00) 8.3 8.89 (15:00) 5.83 (15:00) 9.4 9.4 0 0 0
23-10-2019 10.4 (05:50) 5.5 (00:00) 7.9 11.94 (12:20) 6.39 (12:20) 25.8 0.2 13.6 2.8 9.2
22-10-2019 9.6 (14:40) 3.7 (03:20) 6.7 12.22 (13:10) 6.94 (14:20) 0.4 0 0 0 0.4

Gráficas

Temp. máximas Temp. mínimas Temp. medias Precipitaciones Rachas de viento máximas Velocidades máximas media en intervalos de 10 minutos

Datos horarios

Fecha y hora oficial Temperatura (ºC) Velocidad del viento (km/h) Dirección del viento Racha (km/h) Dirección de racha Precipitación (mm) Presión (hPa) Tendencia (hPa) Humedad (%)
2019-11-20 23:00:00 4.5 18 Sudoeste 30 Sudoeste 0 -- -- 99
2019-11-20 22:00:00 4.5 17 Sudoeste 24 Sudoeste 0.2 -- -- 99
2019-11-20 21:00:00 4.4 14 Sudoeste 23 Sudoeste 0 -- -- 99
2019-11-20 20:00:00 4.3 17 Sudoeste 22 Sudoeste 0.2 -- -- 98
2019-11-20 19:00:00 4.4 15 Sur 21 Sur 0.2 -- -- 98
2019-11-20 18:00:00 4.5 12 Sur 25 Sur 0.2 -- -- 98
2019-11-20 17:00:00 4.5 9 Sur 16 Sudoeste 0.8 -- -- 97
2019-11-20 16:00:00 4.3 11 Sur 23 Sudoeste 0.6 -- -- 95
2019-11-20 15:00:00 4.8 15 Sudoeste 32 Sudoeste 0.6 -- -- 96
2019-11-20 14:00:00 4.7 15 Sudoeste 22 Sudoeste 0.8 -- -- 97
2019-11-20 13:00:00 4.1 10 Sur 17 Sur 0.2 -- -- 97
2019-11-20 12:00:00 3.8 12 Sur 16 Sur 0 -- -- 96
2019-11-20 11:00:00 3.6 8 Sur 13 Sur 0.6 -- -- 97
2019-11-20 10:00:00 3.1 4 Sudeste 8 Sudeste 0.4 -- -- 97
2019-11-20 09:00:00 2.8 4 Sudeste 9 Sur 0 -- -- 96
2019-11-20 08:00:00 2.9 4 Sudeste 9 Sudeste 0 -- -- 96
2019-11-20 07:00:00 3 3 Sudeste 13 Sur 0 -- -- 96
2019-11-20 06:00:00 3 4 Sudeste 6 Sur 0 -- -- 97
2019-11-20 05:00:00 2.9 0 Calma 4 Este 0 -- -- 97
2019-11-20 04:00:00 2.8 0 Calma 4 Este 0 -- -- 96
2019-11-20 03:00:00 2.8 0 Calma 3 Sur 0 -- -- 96
2019-11-20 02:00:00 2.6 0 Calma 3 Este 0 -- -- 96
2019-11-20 01:00:00 2.6 0 Calma 3 Este 0 -- -- 96
2019-11-20 00:00:00 2.6 0 Calma 2 Sudoeste 0 -- -- 96
2019-11-19 23:00:00 2.6 0 Calma 5 Sudoeste 0 -- -- 95
2019-11-19 22:00:00 2.2 2 Sudoeste 3 Sudoeste 0 -- -- 96
2019-11-19 21:00:00 1.8 2 Sur 4 Sur 0 -- -- 95
2019-11-19 20:00:00 2 2 Sur 5 Sudoeste 0 -- -- 92
2019-11-19 19:00:00 2.8 4 Oeste 9 Sudoeste 0 -- -- 89
2019-11-19 18:00:00 3.6 7 Sudoeste 13 Sudoeste 0 -- -- 86
2019-11-19 17:00:00 4.8 11 Oeste 22 Oeste 0 -- -- 80
2019-11-19 16:00:00 5.5 16 Oeste 26 Oeste 0 -- -- 78
2019-11-19 15:00:00 6.3 17 Oeste 25 Oeste 0 -- -- 75
2019-11-19 14:00:00 5.6 12 Oeste 18 Oeste 0 -- -- 82
2019-11-19 13:00:00 4.4 11 Oeste 17 Oeste 0 -- -- 88
2019-11-19 12:00:00 2.5 6 Sur 9 Sur 0 -- -- 99
2019-11-19 11:00:00 0 0 Calma 4 Este 0 -- -- 99
2019-11-19 10:00:00 -1.3 0 Calma 4 Nordeste 0 -- -- 98
2019-11-19 09:00:00 -2.9 0 Calma 6 Norte 0 -- -- 97
2019-11-19 08:00:00 -3.2 0 Calma 6 Norte 0 -- -- 96
2019-11-19 07:00:00 -3.2 4 Norte 9 Norte 0 -- -- 96
2019-11-19 06:00:00 -3.1 4 Norte 8 Norte 0 -- -- 96
2019-11-19 05:00:00 -2.7 3 Norte 10 Norte 0 -- -- 96
2019-11-19 04:00:00 -2.6 5 Nordeste 8 Nordeste 0 -- -- 97
2019-11-19 03:00:00 -2.4 3 Norte 8 Norte 0 -- -- 97
2019-11-19 02:00:00 -2.1 5 Norte 9 Nordeste 0 -- -- 97
2019-11-19 01:00:00 -1.7 0 Calma 9 Norte 0 -- -- 97
2019-11-19 00:00:00 -1.2 0 Calma 11 Norte 0 -- -- 97
2019-11-18 23:00:00 -1.2 4 Nordeste 12 Nordeste 0 -- -- 97
2019-11-18 22:00:00 0 4 Noroeste 10 Nordeste 0 -- -- 97
2019-11-18 21:00:00 -0.2 0 Calma 10 Oeste 0 -- -- 96
2019-11-18 20:00:00 0.3 0 Calma 8 Sudeste 0 -- -- 95
2019-11-18 19:00:00 2.7 4 Sudeste 9 Este 0.2 -- -- 91
2019-11-18 18:00:00 5 6 Nordeste 16 Nordeste 0.2 -- -- 83
2019-11-18 17:00:00 7.7 5 Sudeste 13 Sudeste 0 -- -- 80
2019-11-18 16:00:00 5.8 8 Este 21 Este 0 -- -- 89
2019-11-18 15:00:00 5.3 12 Este 28 Nordeste 0.4 -- -- 88
2019-11-18 14:00:00 8.6 7 Sur 15 Sur 0 -- -- 72
2019-11-18 13:00:00 6.3 5 Sudoeste 13 Sudoeste 0 -- -- 79
2019-11-18 12:00:00 5 6 Sur 10 Sur 0 -- -- 89
2019-11-18 11:00:00 2.1 0 Calma 10 Noroeste 0 -- -- 95
2019-11-18 10:00:00 -0.2 4 Norte 10 Nordeste 0 -- -- 98
2019-11-18 09:00:00 -1.4 3 Oeste 8 Norte 0 -- -- 97
2019-11-18 08:00:00 -1.7 4 Norte 7 Nordeste 0 -- -- 97
2019-11-18 07:00:00 -1.3 5 Nordeste 10 Noroeste 0 -- -- 96
2019-11-18 06:00:00 -0.5 5 Nordeste 12 Norte 0 -- -- 96
2019-11-18 05:00:00 0 4 Noroeste 12 Noroeste 0 -- -- 96
2019-11-18 04:00:00 0.1 4 Norte 10 Noroeste 0 -- -- 97
2019-11-18 03:00:00 -0.1 4 Norte 9 Nordeste 0 -- -- 97
2019-11-18 02:00:00 -0.5 3 Nordeste 9 Nordeste 0 -- -- 98
2019-11-18 01:00:00 -1.3 0 Calma 8 Nordeste 0 -- -- 97
2019-11-18 00:00:00 -1.2 3 Nordeste 10 Nordeste 0 -- -- 95
2019-11-17 23:00:00 0.5 3 Nordeste 12 Noroeste 0 -- -- 91
2019-11-17 22:00:00 1.7 3 Noroeste 11 Oeste 0 -- -- 88
2019-11-17 21:00:00 2.3 5 Noroeste 12 Norte 0 -- -- 86
2019-11-17 20:00:00 2 4 Norte 12 Noroeste 0 -- -- 88
2019-11-17 19:00:00 3.8 8 Noroeste 22 Noroeste 0 -- -- 81
2019-11-17 18:00:00 4.4 5 Nordeste 17 Noroeste 0 -- -- 90
2019-11-17 17:00:00 6.6 10 Norte 18 Norte 0 -- -- 84
2019-11-17 16:00:00 7.4 14 Noroeste 21 Noroeste 0 -- -- 86
2019-11-17 15:00:00 5.4 7 Noroeste 28 Oeste 0 -- -- 93
2019-11-17 14:00:00 5 19 Oeste 33 Oeste 0 -- -- 95
2019-11-17 13:00:00 4.8 16 Oeste 26 Oeste 0 -- -- 97
2019-11-17 12:00:00 3.8 14 Oeste 23 Oeste 0 -- -- 98
2019-11-17 11:00:00 3.3 11 Oeste 20 Oeste 0 -- -- 97
2019-11-17 10:00:00 2.8 9 Sudoeste 15 Sudoeste 0.2 -- -- 97
2019-11-17 09:00:00 2.4 11 Sudoeste 16 Sudoeste 0 -- -- 97
2019-11-17 08:00:00 2.2 7 Sudoeste 16 Sudoeste 0 -- -- 95
2019-11-17 07:00:00 2.6 8 Sudoeste 17 Noroeste 0 -- -- 92
2019-11-17 06:00:00 2.3 8 Noroeste 23 Oeste 0 -- -- 94
2019-11-17 05:00:00 2.2 12 Oeste 19 Oeste 0 -- -- 93
2019-11-17 04:00:00 2 15 Oeste 26 Oeste 0 -- -- 92
2019-11-17 03:00:00 1.8 17 Oeste 26 Oeste 0 -- -- 92
2019-11-17 02:00:00 2.1 10 Noroeste 22 Oeste 0 -- -- 90
2019-11-17 01:00:00 2 6 Noroeste 16 Oeste 0 -- -- 90
2019-11-17 00:00:00 1.9 4 Norte 13 Noroeste 0 -- -- 87
2019-11-16 23:00:00 1.9 6 Noroeste 17 Noroeste 0 -- -- 87
2019-11-16 22:00:00 1.8 14 Noroeste 26 Noroeste 0 -- -- 86
2019-11-16 21:00:00 1.7 9 Oeste 26 Oeste 0 -- -- 84
2019-11-16 20:00:00 2 16 Oeste 22 Oeste 0 -- -- 80
2019-11-16 19:00:00 2.8 5 Sur 15 Oeste 0 -- -- 82
2019-11-16 18:00:00 3.9 15 Oeste 30 Oeste 0 -- -- 78
2019-11-16 17:00:00 4.7 17 Oeste 34 Oeste 0 -- -- 74
2019-11-16 16:00:00 5.8 21 Oeste 30 Oeste 0 -- -- 70
2019-11-16 15:00:00 5.6 18 Oeste 27 Oeste 0 -- -- 70
2019-11-16 14:00:00 5.2 15 Noroeste 36 Noroeste 0 -- -- 75
2019-11-16 13:00:00 5.2 23 Noroeste 42 Noroeste 0 -- -- 74
2019-11-16 12:00:00 5.4 25 Oeste 35 Noroeste 0 -- -- 75
2019-11-16 11:00:00 2.8 21 Oeste 34 Noroeste 0 -- -- 83
2019-11-16 10:00:00 0.9 9 Noroeste 24 Noroeste 0 -- -- 93
2019-11-16 09:00:00 -1.6 3 Noroeste 12 Noroeste 0 -- -- 97
2019-11-16 08:00:00 -3.6 0 Calma 8 Sudeste 0 -- -- 96
2019-11-16 07:00:00 -3.1 2 Nordeste 5 Oeste 0 -- -- 96
2019-11-16 06:00:00 -2.8 3 Este 9 Norte 0 -- -- 96
2019-11-16 05:00:00 -2.7 6 Norte 10 Norte 0 -- -- 96
2019-11-16 04:00:00 -2.1 4 Norte 12 Norte 0 -- -- 95
2019-11-16 03:00:00 -2.2 5 Nordeste 10 Norte 0 -- -- 95
2019-11-16 02:00:00 -1.7 6 Norte 12 Norte 0 -- -- 96
2019-11-16 01:00:00 -1.5 7 Norte 12 Norte 0 -- -- 96
2019-11-16 00:00:00 -1 3 Noroeste 8 Nordeste 0 -- -- 95
2019-11-15 23:00:00 -0.7 5 Norte 10 Norte 0 -- -- 94
2019-11-15 22:00:00 0 5 Noroeste 13 Noroeste 0 -- -- 94
2019-11-15 21:00:00 0.7 4 Noroeste 14 Norte 0 -- -- 93
2019-11-15 20:00:00 1.2 6 Noroeste 19 Oeste 0 -- -- 92
2019-11-15 19:00:00 1.4 9 Norte 29 Oeste 0 -- -- 91
2019-11-15 18:00:00 2.3 16 Noroeste 27 Noroeste 0 -- -- 89
2019-11-15 17:00:00 3.2 17 Noroeste 27 Noroeste 0 -- -- 86
2019-11-15 16:00:00 3.2 19 Oeste 40 Oeste 0 -- -- 86
2019-11-15 15:00:00 4.2 26 Oeste 37 Oeste 0 -- -- 83
2019-11-15 14:00:00 2.9 23 Oeste 50 Oeste 0 -- -- 89
2019-11-15 13:00:00 3.1 26 Oeste 37 Oeste 0 -- -- 86
2019-11-15 12:00:00 2 21 Oeste 31 Oeste 0 -- -- 91
2019-11-15 11:00:00 1.2 10 Oeste 30 Oeste 0 -- -- 94
2019-11-15 10:00:00 1.1 14 Oeste 26 Oeste 0.2 -- -- 93
2019-11-15 09:00:00 0.6 11 Oeste 24 Oeste 0.2 -- -- 96
2019-11-15 08:00:00 0.2 17 Oeste 28 Oeste 0.2 -- -- 97
2019-11-15 07:00:00 0.3 17 Oeste 24 Oeste 0.4 -- -- 96
2019-11-15 06:00:00 0.3 12 Oeste 23 Oeste 0.4 -- -- 96
2019-11-15 05:00:00 0.5 11 Oeste 35 Oeste 0 -- -- 95
2019-11-15 04:00:00 0.7 10 Oeste 23 Oeste 0 -- -- 95
2019-11-15 03:00:00 0.9 17 Noroeste 33 Noroeste 0 -- -- 94
2019-11-15 02:00:00 0.7 10 Noroeste 25 Oeste 0 -- -- 93
2019-11-15 01:00:00 0.1 14 Oeste 21 Oeste 0 -- -- 95
2019-11-15 00:00:00 0.2 7 Noroeste 16 Oeste 0 -- -- 95
2019-11-14 23:00:00 -0.1 4 Norte 18 Noroeste 0 -- -- 94
2019-11-14 22:00:00 0.1 6 Oeste 11 Oeste 0 -- -- 92
2019-11-14 21:00:00 0.9 12 Oeste 29 Oeste 0 -- -- 92
2019-11-14 20:00:00 0.8 4 Norte 27 Oeste 0 -- -- 92
2019-11-14 19:00:00 1.4 16 Noroeste 33 Noroeste 0 -- -- 91
2019-11-14 18:00:00 1.5 13 Noroeste 30 Oeste 0 -- -- 88
2019-11-14 17:00:00 2.4 21 Oeste 37 Oeste 0 -- -- 86
2019-11-14 16:00:00 3.1 27 Oeste 43 Oeste 0 -- -- 85
2019-11-14 15:00:00 2.9 21 Oeste 33 Oeste 0 -- -- 89
2019-11-14 14:00:00 2 18 Sudoeste 37 Oeste 0.4 -- -- 93
2019-11-14 13:00:00 3.3 23 Sudoeste 41 Sudoeste 0 -- -- 74
2019-11-14 12:00:00 3 22 Sudoeste 37 Oeste 0 -- -- 80
2019-11-14 11:00:00 2.6 25 Oeste 41 Oeste 0 -- -- 84
2019-11-14 10:00:00 0.9 6 Oeste 18 Noroeste 0 -- -- 87
2019-11-14 09:00:00 0.2 10 Oeste 24 Oeste 0 -- -- 89
2019-11-14 08:00:00 -0.8 5 Sur 18 Oeste 0 -- -- 93
2019-11-14 07:00:00 0.7 14 Oeste 30 Noroeste 0 -- -- 88
2019-11-14 06:00:00 2.3 17 Noroeste 30 Noroeste 0 -- -- 85
2019-11-14 05:00:00 2.7 10 Noroeste 23 Noroeste 0 -- -- 92
2019-11-14 04:00:00 2.9 10 Noroeste 32 Oeste 1.4 -- -- 93
2019-11-14 03:00:00 5 25 Oeste 49 Oeste 1.4 -- -- 94
2019-11-14 02:00:00 4.7 29 Sudoeste 44 Sudoeste 1.2 -- -- 94
2019-11-14 01:00:00 5.1 24 Sudoeste 34 Sudoeste 0.2 -- -- 88
2019-11-14 00:00:00 6.1 17 Sudoeste 36 Oeste 0 -- -- 77
2019-11-13 23:00:00 6.2 17 Oeste 46 Oeste 0 -- -- 78
2019-11-13 22:00:00 6.2 27 Oeste 50 Oeste 0 -- -- 77
2019-11-13 21:00:00 6.3 27 Oeste 50 Oeste 0 -- -- 78
2019-11-13 20:00:00 7 25 Oeste 39 Oeste 0 -- -- 77
2019-11-13 19:00:00 8.1 22 Oeste 34 Oeste 0 -- -- 74
2019-11-13 18:00:00 9 15 Oeste 29 Oeste 0 -- -- 70
2019-11-13 17:00:00 10.7 18 Oeste 42 Oeste 0 -- -- 69
2019-11-13 16:00:00 10.5 15 Oeste 27 Oeste 0 -- -- 69
2019-11-13 15:00:00 10.6 16 Oeste 28 Oeste 0 -- -- 72
2019-11-13 14:00:00 10.2 16 Oeste 27 Oeste 0 -- -- 70
2019-11-13 13:00:00 10.3 18 Noroeste 31 Oeste 0 -- -- 70
2019-11-13 12:00:00 8.6 8 Sur 18 Sudoeste 0 -- -- 92
2019-11-13 11:00:00 7.1 6 Sur 12 Sudoeste 0 -- -- 97
2019-11-13 10:00:00 5.1 3 Sur 5 Sudeste 0 -- -- 99
2019-11-13 09:00:00 3.8 3 Noroeste 9 Noroeste 0 -- -- 95
2019-11-13 08:00:00 4.6 4 Norte 15 Nordeste 0 -- -- 93
2019-11-13 07:00:00 4.3 5 Nordeste 14 Nordeste 0 -- -- 95
2019-11-13 06:00:00 5 7 Este 13 Este 0 -- -- 96
2019-11-13 05:00:00 5.9 4 Noroeste 16 Nordeste 0 -- -- 97
2019-11-13 04:00:00 6.3 11 Noroeste 18 Oeste 0 -- -- 98
2019-11-13 03:00:00 6.8 3 Noroeste 17 Norte 1.4 -- -- 98
2019-11-13 02:00:00 7 9 Norte 22 Sudoeste 3 -- -- 98
2019-11-13 01:00:00 6.7 10 Sudoeste 15 Sudoeste 3.4 -- -- 98
2019-11-13 00:00:00 6.6 5 Oeste 16 Oeste 1 -- -- 98
2019-11-12 23:00:00 6.5 9 Sudoeste 18 Oeste 0.4 -- -- 98
2019-11-12 22:00:00 6.3 13 Sudoeste 22 Oeste 0.6 -- -- 97
2019-11-12 21:00:00 6 20 Sudoeste 33 Sudoeste 0.4 -- -- 97
2019-11-12 20:00:00 6 22 Sudoeste 33 Sudoeste 0.4 -- -- 95
2019-11-12 19:00:00 6.1 11 Sudoeste 19 Sudoeste 1 -- -- 95
2019-11-12 18:00:00 6.2 6 Sudoeste 17 Sudoeste 1 -- -- 93
2019-11-12 17:00:00 6.7 12 Oeste 30 Oeste 0.4 -- -- 90
2019-11-12 16:00:00 6.9 21 Oeste 32 Oeste 0 -- -- 83
2019-11-12 15:00:00 8.2 20 Oeste 30 Oeste 0 -- -- 70
2019-11-12 14:00:00 8.5 19 Oeste 33 Oeste 0 -- -- 70
2019-11-12 13:00:00 9 22 Oeste 31 Oeste 0 -- -- 68
2019-11-12 12:00:00 8.1 18 Oeste 24 Oeste 0 -- -- 70
2019-11-12 11:00:00 5.6 6 Sur 10 Sur 0 -- -- 87
2019-11-12 10:00:00 4.2 4 Sur 13 Sur 0 -- -- 92
2019-11-12 09:00:00 3.2 5 Sudeste 9 Oeste 0 -- -- 93
2019-11-12 08:00:00 3.1 0 Calma 13 Noroeste 0 -- -- 89
2019-11-12 07:00:00 3.1 2 Noroeste 9 Noroeste 0 -- -- 90
2019-11-12 06:00:00 2.3 0 Calma 4 Sudoeste 0 -- -- 95
2019-11-12 05:00:00 2.3 4 Sudoeste 9 Sudeste 0 -- -- 94
2019-11-12 04:00:00 2.5 4 Este 21 Noroeste 0 -- -- 92
2019-11-12 03:00:00 0.9 0 Calma 6 Este 0 -- -- 97
2019-11-12 02:00:00 0.3 3 Este 6 Sudoeste 0 -- -- 97
2019-11-12 01:00:00 -0.2 2 Este 9 Norte 0 -- -- 96
2019-11-12 00:00:00 -0.8 6 Nordeste 10 Nordeste 0 -- -- 97
2019-11-11 23:00:00 -1.1 0 Calma 7 Nordeste 0 -- -- 95
2019-11-11 22:00:00 -0.3 0 Calma 9 Nordeste 0 -- -- 94
2019-11-11 21:00:00 1 3 Nordeste 10 Nordeste 0 -- -- 91
2019-11-11 20:00:00 3.1 4 Norte 8 Nordeste 0 -- -- 86
2019-11-11 19:00:00 5.1 4 Nordeste 8 Norte 0 -- -- 83
2019-11-11 18:00:00 6.4 2 Norte 14 Norte 0 -- -- 78
2019-11-11 17:00:00 7.7 8 Norte 23 Norte 0 -- -- 70
2019-11-11 16:00:00 9.3 9 Noroeste 23 Noroeste 0 -- -- 63
2019-11-11 15:00:00 8.9 10 Nordeste 21 Este 0 -- -- 74
2019-11-11 14:00:00 9.8 14 Este 30 Nordeste 0 -- -- 80
2019-11-11 13:00:00 9.2 3 Sudeste 9 Noroeste 0 -- -- 86
2019-11-11 12:00:00 7 5 Noroeste 14 Oeste 0 -- -- 91
2019-11-11 11:00:00 5.4 6 Oeste 17 Oeste 0 -- -- 96
2019-11-11 10:00:00 4 4 Oeste 6 Oeste 0 -- -- 98
2019-11-11 09:00:00 3.1 2 Sur 5 Sur 0 -- -- 98
2019-11-11 08:00:00 2.6 2 Sur 8 Sur 0 -- -- 98
2019-11-11 07:00:00 2.4 5 Sur 9 Sudeste 0 -- -- 98
2019-11-11 06:00:00 2.1 5 Sur 10 Sur 0 -- -- 98
2019-11-11 05:00:00 1.7 5 Sudeste 10 Sudeste 0 -- -- 98
2019-11-11 04:00:00 1.1 4 Sur 9 Sur 0 -- -- 98
2019-11-11 03:00:00 0.4 2 Sudeste 5 Noroeste 0 -- -- 98
2019-11-11 02:00:00 0.5 4 Norte 6 Norte 0 -- -- 98
2019-11-11 01:00:00 0.5 3 Norte 9 Norte 0 -- -- 97
2019-11-11 00:00:00 0.6 0 Calma 6 Oeste 0 -- -- 96
2019-11-10 23:00:00 1.1 4 Nordeste 6 Sudoeste 0 -- -- 95
2019-11-10 22:00:00 1.8 2 Nordeste 7 Sur 0.2 -- -- 95
2019-11-10 21:00:00 2.8 0 Calma 15 Oeste 0 -- -- 93
2019-11-10 20:00:00 3.3 15 Oeste 20 Oeste 0 -- -- 90
2019-11-10 19:00:00 3.4 7 Noroeste 14 Oeste 0 -- -- 88
2019-11-10 18:00:00 3.5 8 Noroeste 17 Noroeste 0 -- -- 87
2019-11-10 17:00:00 4.3 14 Noroeste 20 Oeste 0 -- -- 82
2019-11-10 16:00:00 5.3 16 Oeste 24 Noroeste 0 -- -- 85
2019-11-10 15:00:00 4.4 16 Noroeste 26 Oeste 0 -- -- 86
2019-11-10 14:00:00 4 16 Oeste 30 Noroeste 0.2 -- -- 92
2019-11-10 13:00:00 4.4 21 Noroeste 32 Noroeste 0 -- -- 86
2019-11-10 12:00:00 3.5 17 Oeste 27 Oeste 0.8 -- -- 94
2019-11-10 11:00:00 2.9 20 Noroeste 35 Oeste 0.2 -- -- 91
2019-11-10 10:00:00 2.7 14 Noroeste 32 Oeste 0 -- -- 91
2019-11-10 09:00:00 1.4 12 Noroeste 22 Noroeste 0 -- -- 93
2019-11-10 08:00:00 1.3 13 Noroeste 30 Noroeste 0 -- -- 91
2019-11-10 07:00:00 1.1 7 Noroeste 25 Noroeste 0 -- -- 91
2019-11-10 06:00:00 1.2 7 Noroeste 36 Noroeste 0 -- -- 90
2019-11-10 05:00:00 1.4 12 Noroeste 31 Norte 0 -- -- 88
2019-11-10 04:00:00 1.5 11 Noroeste 26 Noroeste 0 -- -- 87
2019-11-10 03:00:00 1.2 9 Noroeste 23 Noroeste 0 -- -- 90
2019-11-10 02:00:00 1.3 13 Noroeste 22 Noroeste 0 -- -- 90
2019-11-10 01:00:00 1.5 8 Noroeste 18 Noroeste 0 -- -- 92
2019-11-10 00:00:00 2.1 6 Norte 28 Noroeste 0 -- -- 90
2019-11-09 23:00:00 3.4 14 Noroeste 28 Noroeste 0 -- -- 87
2019-11-09 22:00:00 4.8 13 Noroeste 30 Oeste 0 -- -- 79
2019-11-09 21:00:00 5.6 6 Noroeste 15 Noroeste 0 -- -- 88
2019-11-09 20:00:00 5.1 3 Norte 6 Oeste 0 -- -- 94
2019-11-09 19:00:00 6.2 0 Calma 8 Nordeste 0 -- -- 92
2019-11-09 18:00:00 7.3 4 Nordeste 10 Norte 0 -- -- 89
2019-11-09 17:00:00 8.2 5 Norte 18 Oeste 0 -- -- 85
2019-11-09 16:00:00 8 17 Oeste 27 Oeste 0 -- -- 86
2019-11-09 15:00:00 7.3 20 Oeste 33 Oeste 0 -- -- 90
2019-11-09 14:00:00 6 17 Oeste 29 Oeste 0 -- -- 93
2019-11-09 13:00:00 5 13 Oeste 25 Oeste 0 -- -- 95
2019-11-09 12:00:00 4.5 12 Sudoeste 24 Sudoeste 0 -- -- 92
2019-11-09 11:00:00 3.7 16 Sudoeste 26 Sudoeste 0.2 -- -- 94
2019-11-09 10:00:00 3.2 10 Oeste 21 Oeste 0.4 -- -- 94
2019-11-09 09:00:00 3.3 13 Oeste 24 Oeste 0 -- -- 93
2019-11-09 08:00:00 3.1 11 Oeste 25 Oeste 0 -- -- 92
2019-11-09 07:00:00 2.9 8 Noroeste 18 Oeste 0 -- -- 91
2019-11-09 06:00:00 2.7 4 Noroeste 14 Noroeste 0 -- -- 90
2019-11-09 05:00:00 2.5 10 Noroeste 31 Oeste 0 -- -- 90
2019-11-09 04:00:00 2.5 20 Oeste 29 Oeste 0 -- -- 90
2019-11-09 03:00:00 1.8 15 Oeste 24 Oeste 0 -- -- 90
2019-11-09 02:00:00 1.6 5 Oeste 13 Oeste 0 -- -- 86
2019-11-09 01:00:00 1.7 3 Nordeste 16 Oeste 0 -- -- 86
2019-11-09 00:00:00 0.9 0 Calma 12 Oeste 0 -- -- 86
2019-11-08 23:00:00 2.1 5 Oeste 12 Oeste 0 -- -- 82
2019-11-08 22:00:00 2.7 2 Oeste 18 Oeste 0 -- -- 82
2019-11-08 21:00:00 2.8 9 Oeste 27 Noroeste 0 -- -- 80
2019-11-08 20:00:00 3.2 18 Noroeste 29 Noroeste 0 -- -- 79
2019-11-08 19:00:00 3.6 19 Oeste 45 Oeste 0 -- -- 79
2019-11-08 18:00:00 4.9 18 Oeste 45 Oeste 0 -- -- 73
2019-11-08 17:00:00 7.1 21 Oeste 40 Noroeste 0 -- -- 64
2019-11-08 16:00:00 7.4 23 Noroeste 39 Oeste 0 -- -- 62
2019-11-08 15:00:00 7.3 17 Noroeste 41 Noroeste 0 -- -- 69
2019-11-08 14:00:00 6.7 24 Oeste 44 Noroeste 0 -- -- 72
2019-11-08 13:00:00 6.1 25 Noroeste 53 Noroeste 0 -- -- 77
2019-11-08 12:00:00 5.3 25 Noroeste 42 Noroeste 0 -- -- 78
2019-11-08 11:00:00 3.4 19 Noroeste 35 Noroeste 0.2 -- -- 91
2019-11-08 10:00:00 1.8 16 Oeste 28 Oeste 0 -- -- 94
2019-11-08 09:00:00 1 12 Oeste 33 Oeste 0 -- -- 94
2019-11-08 08:00:00 0.6 14 Oeste 20 Oeste 0.2 -- -- 94
2019-11-08 07:00:00 0.8 12 Oeste 25 Oeste 0 -- -- 94
2019-11-08 06:00:00 0.8 15 Oeste 33 Oeste 0 -- -- 94
2019-11-08 05:00:00 0.8 18 Oeste 30 Oeste 0 -- -- 93
2019-11-08 04:00:00 0.9 17 Oeste 31 Oeste 0 -- -- 92
2019-11-08 03:00:00 0.8 16 Oeste 36 Oeste 0 -- -- 91
2019-11-08 02:00:00 0.4 20 Oeste 30 Oeste 0 -- -- 91
2019-11-08 01:00:00 0.7 22 Oeste 34 Oeste 0 -- -- 90
2019-11-08 00:00:00 0.6 20 Oeste 31 Oeste 0 -- -- 91
2019-11-07 23:00:00 0.5 10 Oeste 22 Oeste 0 -- -- 90
2019-11-07 22:00:00 0.8 11 Oeste 26 Sudoeste 0 -- -- 86
2019-11-07 21:00:00 1.4 15 Oeste 27 Oeste 0 -- -- 84
2019-11-07 20:00:00 1.9 19 Oeste 34 Oeste 0 -- -- 84
2019-11-07 19:00:00 2.8 21 Oeste 43 Oeste 0 -- -- 79
2019-11-07 18:00:00 4.2 24 Oeste 38 Noroeste 0 -- -- 75
2019-11-07 17:00:00 5.6 22 Oeste 45 Oeste 0 -- -- 73
2019-11-07 16:00:00 6.7 22 Oeste 47 Oeste 0 -- -- 74
2019-11-07 15:00:00 6.4 31 Oeste 57 Oeste 0 -- -- 75
2019-11-07 14:00:00 7.8 33 Oeste 50 Oeste 0 -- -- 65
2019-11-07 13:00:00 8.1 30 Oeste 45 Sudoeste 0 -- -- 64
2019-11-07 12:00:00 7.3 22 Oeste 31 Oeste 0 -- -- 71
2019-11-07 11:00:00 6.4 17 Oeste 25 Oeste 0 -- -- 77
2019-11-07 10:00:00 5.5 19 Oeste 24 Oeste 0 -- -- 85
2019-11-07 09:00:00 3.3 6 Noroeste 10 Oeste 0 -- -- 90
2019-11-07 08:00:00 3.1 3 Noroeste 10 Noroeste 0 -- -- 91
2019-11-07 07:00:00 4.1 0 Calma 13 Noroeste 0 -- -- 86
2019-11-07 06:00:00 5.2 7 Noroeste 19 Noroeste 0 -- -- 84
2019-11-07 05:00:00 6.3 12 Noroeste 24 Oeste 0 -- -- 82
2019-11-07 04:00:00 7.4 9 Noroeste 27 Oeste 0 -- -- 83
2019-11-07 03:00:00 8.3 14 Oeste 28 Oeste 0 -- -- 94
2019-11-07 02:00:00 8.4 17 Oeste 29 Oeste 0 -- -- 96
2019-11-07 01:00:00 8.1 17 Sudoeste 32 Sudoeste 0 -- -- 95
2019-11-07 00:00:00 8 17 Oeste 36 Sudoeste 0 -- -- 95
2019-11-06 23:00:00 7.9 18 Sudoeste 35 Sudoeste 0 -- -- 95
2019-11-06 22:00:00 7.8 20 Sudoeste 35 Sudoeste 0 -- -- 94
2019-11-06 21:00:00 7.8 16 Sudoeste 32 Oeste 0 -- -- 93
2019-11-06 20:00:00 8.2 17 Sudoeste 28 Sudoeste 0.2 -- -- 90
2019-11-06 19:00:00 8.6 12 Sudoeste 22 Oeste 0 -- -- 82
2019-11-06 18:00:00 8.9 12 Oeste 27 Oeste 0 -- -- 78
2019-11-06 17:00:00 9.6 19 Oeste 29 Oeste 0 -- -- 75
2019-11-06 16:00:00 9.9 21 Oeste 37 Oeste 0 -- -- 73
2019-11-06 15:00:00 9.8 17 Oeste 30 Oeste 0 -- -- 75
2019-11-06 14:00:00 9 21 Oeste 31 Oeste 0 -- -- 78
2019-11-06 13:00:00 7.6 13 Oeste 25 Oeste 0 -- -- 85
2019-11-06 12:00:00 6.4 13 Oeste 24 Noroeste 0 -- -- 86
2019-11-06 11:00:00 5.6 12 Noroeste 23 Noroeste 0 -- -- 85
2019-11-06 10:00:00 5.3 6 Noroeste 17 Noroeste 0 -- -- 84
2019-11-06 09:00:00 4.8 9 Noroeste 18 Oeste 0 -- -- 86
2019-11-06 08:00:00 4.2 5 Noroeste 24 Oeste 0 -- -- 88
2019-11-06 07:00:00 3.1 4 Noroeste 15 Norte 0 -- -- 91
2019-11-06 06:00:00 2.9 9 Oeste 23 Noroeste 0 -- -- 91
2019-11-06 05:00:00 3.3 3 Noroeste 11 Nordeste 0 -- -- 89
2019-11-06 04:00:00 3.8 7 Noroeste 21 Oeste 0 -- -- 89
2019-11-06 03:00:00 4.1 9 Sudoeste 26 Oeste 0 -- -- 88
2019-11-06 02:00:00 4.2 18 Oeste 28 Oeste 0 -- -- 86
2019-11-06 01:00:00 4.3 9 Oeste 22 Oeste 0 -- -- 88
2019-11-06 00:00:00 3.3 10 Oeste 18 Sudoeste 0 -- -- 93
2019-11-05 23:00:00 3.8 11 Sudoeste 20 Sudeste 0 -- -- 93
2019-11-05 22:00:00 4.3 0 Calma 26 Noroeste 0 -- -- 88
2019-11-05 21:00:00 5.2 15 Noroeste 19 Oeste 0 -- -- 87
2019-11-05 20:00:00 5.2 7 Noroeste 22 Oeste 0 -- -- 87
2019-11-05 19:00:00 5.6 12 Noroeste 27 Noroeste 0 -- -- 85
2019-11-05 18:00:00 7 10 Oeste 31 Noroeste 0 -- -- 84
2019-11-05 17:00:00 7.2 17 Oeste 32 Noroeste 0 -- -- 84
2019-11-05 16:00:00 6 14 Noroeste 30 Oeste 1.4 -- -- 90
2019-11-05 15:00:00 6.6 15 Noroeste 34 Nordeste 1.4 -- -- 87
2019-11-05 14:00:00 9 14 Noroeste 35 Noroeste 0 -- -- 77
2019-11-05 13:00:00 8.5 23 Noroeste 44 Noroeste 0.2 -- -- 80
2019-11-05 12:00:00 7.2 32 Oeste 53 Oeste 0.8 -- -- 82
2019-11-05 11:00:00 6.9 30 Oeste 45 Oeste 0 -- -- 84
2019-11-05 10:00:00 5.4 19 Oeste 30 Oeste 0 -- -- 89
2019-11-05 09:00:00 4.6 19 Oeste 35 Oeste 0 -- -- 88
2019-11-05 08:00:00 4.4 25 Oeste 38 Oeste 0 -- -- 89
2019-11-05 07:00:00 4.2 13 Oeste 28 Oeste 0 -- -- 89
2019-11-05 06:00:00 4.1 18 Oeste 28 Sudoeste 0 -- -- 89
2019-11-05 05:00:00 3.8 13 Oeste 24 Oeste 0 -- -- 89
2019-11-05 04:00:00 3.8 18 Oeste 28 Oeste 0 -- -- 88
2019-11-05 03:00:00 4.3 12 Sudoeste 28 Sudoeste 0 -- -- 87
2019-11-05 02:00:00 4.2 16 Sudoeste 29 Sudoeste 0 -- -- 85
2019-11-05 01:00:00 4.5 18 Oeste 36 Oeste 0 -- -- 86
2019-11-05 00:00:00 5 25 Oeste 43 Oeste 0 -- -- 81
2019-11-04 23:00:00 5.2 27 Oeste 44 Oeste 0 -- -- 81
2019-11-04 22:00:00 5.4 22 Oeste 40 Oeste 0 -- -- 81
2019-11-04 21:00:00 5.9 23 Oeste 45 Oeste 0 -- -- 81
2019-11-04 20:00:00 6.8 32 Oeste 51 Oeste 0 -- -- 79
2019-11-04 19:00:00 7.8 30 Oeste 50 Oeste 0 -- -- 73
2019-11-04 18:00:00 9.1 28 Oeste 48 Oeste 0 -- -- 73
2019-11-04 17:00:00 11 25 Oeste 44 Oeste 0 -- -- 71
2019-11-04 16:00:00 12.2 24 Oeste 56 Oeste 0 -- -- 70
2019-11-04 15:00:00 12.5 33 Oeste 57 Oeste 0 -- -- 68
2019-11-04 14:00:00 10.9 29 Oeste 51 Oeste 0.2 -- -- 78
2019-11-04 13:00:00 10.7 29 Oeste 44 Oeste 0.2 -- -- 87
2019-11-04 12:00:00 10.6 28 Oeste 45 Sudoeste 0.6 -- -- 91
2019-11-04 11:00:00 10.3 31 Sudoeste 53 Sudoeste 1 -- -- 96
2019-11-04 10:00:00 9.8 37 Sudoeste 54 Sudoeste 1.2 -- -- 96
2019-11-04 09:00:00 9.7 39 Sudoeste 60 Sudoeste 0.2 -- -- 95
2019-11-04 08:00:00 9.7 31 Sudoeste 54 Sudoeste 0.2 -- -- 93
2019-11-04 07:00:00 9.6 28 Sudoeste 44 Sudoeste 0.4 -- -- 95
2019-11-04 06:00:00 9.5 28 Sudoeste 49 Sudoeste 0.8 -- -- 96
2019-11-04 05:00:00 9.6 30 Sudoeste 51 Sudoeste 0 -- -- 94
2019-11-04 04:00:00 10.2 35 Sudoeste 57 Sudoeste 0 -- -- 91
2019-11-04 03:00:00 10.7 27 Sudoeste 57 Sudoeste 0 -- -- 90
2019-11-04 02:00:00 10.8 32 Sudoeste 64 Sudoeste 0 -- -- 92
2019-11-04 01:00:00 10.5 35 Oeste 54 Sudoeste 0 -- -- 94
2019-11-04 00:00:00 10.3 33 Sudoeste 56 Sudoeste 0.2 -- -- 94
2019-11-03 23:00:00 10 31 Oeste 51 Sudoeste 0 -- -- 96
2019-11-03 22:00:00 9.6 32 Oeste 49 Sudoeste 0 -- -- 96
2019-11-03 21:00:00 9.4 28 Sudoeste 46 Sudoeste 0 -- -- 95
2019-11-03 20:00:00 9.6 26 Sudoeste 55 Sudoeste 0 -- -- 89
2019-11-03 19:00:00 9.6 24 Oeste 40 Oeste 0.4 -- -- 88
2019-11-03 18:00:00 9.8 22 Sudoeste 36 Sudoeste 0 -- -- 82
2019-11-03 17:00:00 10.7 29 Oeste 47 Oeste 0 -- -- 69
2019-11-03 16:00:00 12.3 29 Oeste 50 Oeste 0 -- -- 64
2019-11-03 15:00:00 12.5 36 Oeste 49 Oeste 0 -- -- 64
2019-11-03 14:00:00 11.6 31 Oeste 57 Oeste 0 -- -- 65
2019-11-03 13:00:00 11.1 33 Oeste 48 Oeste 0 -- -- 64
2019-11-03 12:00:00 10.6 27 Oeste 49 Oeste 0 -- -- 56
2019-11-03 11:00:00 9.1 27 Oeste 44 Noroeste 0 -- -- 63
2019-11-03 10:00:00 7.7 33 Noroeste 51 Oeste 0 -- -- 67
2019-11-03 09:00:00 6.3 17 Oeste 24 Oeste 0 -- -- 81
2019-11-03 08:00:00 5.6 8 Oeste 17 Oeste 0 -- -- 84
2019-11-03 07:00:00 6.9 14 Oeste 39 Oeste 0 -- -- 79
2019-11-03 06:00:00 8.1 32 Oeste 75 Oeste 0 -- -- 73
2019-11-03 05:00:00 9.6 55 Oeste 85 Oeste 0.2 -- -- 70
2019-11-03 04:00:00 9.1 36 Oeste 69 Oeste 0.4 -- -- 96
2019-11-03 03:00:00 8.9 45 Sudoeste 72 Sudoeste 0.2 -- -- 94
2019-11-03 02:00:00 8.8 41 Sudoeste 67 Sudoeste 0 -- -- 92
2019-11-03 01:00:00 9.3 40 Sudoeste 67 Oeste 0 -- -- 87
2019-11-03 00:00:00 9.1 35 Sudoeste 61 Sudoeste 0 -- -- 91
2019-11-02 23:00:00 9.5 37 Sudoeste 60 Oeste 0 -- -- 88
2019-11-02 22:00:00 9.8 36 Sudoeste 55 Sudoeste 0 -- -- 85
2019-11-02 21:00:00 10.1 31 Sudoeste 49 Sudoeste 0 -- -- 83
2019-11-02 20:00:00 10.5 28 Sudoeste 44 Sudoeste 0.2 -- -- 81
2019-11-02 19:00:00 10.8 23 Sudoeste 34 Sudoeste 0 -- -- 80
2019-11-02 18:00:00 10.9 19 Oeste 59 Oeste 0 -- -- 84
2019-11-02 17:00:00 12 27 Sudoeste 38 Sudoeste 0 -- -- 79
2019-11-02 16:00:00 12.3 19 Oeste 32 Oeste 0 -- -- 73
2019-11-02 15:00:00 12.6 21 Oeste 32 Oeste 0 -- -- 78
2019-11-02 14:00:00 12.7 22 Oeste 42 Oeste 0 -- -- 79
2019-11-02 13:00:00 13 22 Oeste 38 Oeste 0 -- -- 74
2019-11-02 12:00:00 12.7 22 Oeste 37 Oeste 0 -- -- 71
2019-11-02 11:00:00 12.4 22 Oeste 42 Oeste 0 -- -- 77
2019-11-02 10:00:00 12.8 22 Oeste 37 Oeste 0 -- -- 82
2019-11-02 09:00:00 12.7 23 Oeste 40 Oeste 0 -- -- 90
2019-11-02 08:00:00 12 23 Oeste 41 Oeste 0 -- -- 93
2019-11-02 07:00:00 12.1 24 Sudoeste 37 Sudoeste 0 -- -- 92
2019-11-02 06:00:00 12.2 23 Sudoeste 39 Sudoeste 0 -- -- 94
2019-11-02 05:00:00 12.2 24 Sudoeste 39 Sudoeste 0 -- -- 94
2019-11-02 04:00:00 12.4 23 Sudoeste 38 Oeste 0 -- -- 94
2019-11-02 03:00:00 12.5 26 Sudoeste 38 Oeste 0 -- -- 93
2019-11-02 02:00:00 12.6 27 Sudoeste 40 Sudoeste 0 -- -- 93
2019-11-02 01:00:00 12.5 21 Sudoeste 35 Sudoeste 0 -- -- 94
2019-11-02 00:00:00 12.5 21 Sudoeste 31 Sudoeste 0 -- -- 93
2019-11-01 23:00:00 12.8 19 Sudoeste 29 Sudoeste 0 -- -- 93
2019-11-01 22:00:00 13.1 15 Sudoeste 25 Sudoeste 0 -- -- 92
2019-11-01 21:00:00 13.1 15 Sudoeste 30 Sudoeste 0 -- -- 91
2019-11-01 20:00:00 14 20 Sudoeste 30 Oeste 0 -- -- 89
2019-11-01 19:00:00 14.5 20 Oeste 38 Oeste 0 -- -- 81
2019-11-01 18:00:00 15.4 24 Oeste 44 Oeste 0 -- -- 84
2019-11-01 17:00:00 15.5 25 Sudoeste 41 Sudoeste 0 -- -- 90
2019-11-01 16:00:00 16.5 26 Sudoeste 50 Oeste 0 -- -- 85
2019-11-01 15:00:00 16.5 30 Sudoeste 46 Sudoeste 0 -- -- 89
2019-11-01 14:00:00 15.7 27 Sudoeste 55 Sudoeste 0.2 -- -- 93
2019-11-01 13:00:00 15.5 28 Sudoeste 37 Sudoeste 0.4 -- -- 94
2019-11-01 12:00:00 15.1 22 Oeste 37 Oeste 0.2 -- -- 95
2019-11-01 11:00:00 14.8 22 Oeste 36 Sudoeste 0 -- -- 94
2019-11-01 10:00:00 14.6 21 Oeste 34 Sudoeste 0 -- -- 93
2019-11-01 09:00:00 13.5 13 Oeste 24 Sudoeste 0 -- -- 95
2019-11-01 08:00:00 13.7 8 Oeste 19 Oeste 0 -- -- 93
2019-11-01 07:00:00 13.6 9 Sudoeste 17 Oeste 0 -- -- 95
2019-11-01 06:00:00 13.8 5 Sudoeste 15 Oeste 0 -- -- 94
2019-11-01 05:00:00 13.8 12 Oeste 18 Oeste 0 -- -- 94
2019-11-01 04:00:00 13.9 14 Oeste 22 Oeste 0 -- -- 95
2019-11-01 03:00:00 13.6 11 Sudoeste 22 Sudoeste 0 -- -- 97
2019-11-01 02:00:00 13.4 12 Oeste 22 Oeste 0 -- -- 97
2019-11-01 01:00:00 14 14 Oeste 21 Oeste 0 -- -- 93
2019-11-01 00:00:00 14 9 Sudoeste 16 Oeste 0 -- -- 93
2019-10-31 23:00:00 14.1 5 Sudoeste 9 Oeste 0 -- -- 91
2019-10-31 22:00:00 14.2 5 Oeste 12 Oeste 0 -- -- 89
2019-10-31 21:00:00 14.4 4 Sudoeste 13 Sudoeste 0 -- -- 86
2019-10-31 20:00:00 14.6 7 Sudoeste 19 Sudoeste 0 -- -- 85
2019-10-31 19:00:00 15.1 12 Sudoeste 23 Sudoeste 0 -- -- 80
2019-10-31 18:00:00 16.3 11 Sudoeste 24 Oeste 0 -- -- 75
2019-10-31 17:00:00 17.1 19 Oeste 30 Oeste 0 -- -- 70
2019-10-31 16:00:00 17.7 16 Oeste 26 Sudoeste 0 -- -- 66
2019-10-31 15:00:00 17.8 13 Oeste 24 Noroeste 0 -- -- 66
2019-10-31 14:00:00 18 12 Oeste 24 Oeste 0 -- -- 63
2019-10-31 13:00:00 17.3 15 Oeste 24 Oeste 0 -- -- 61
2019-10-31 12:00:00 15.2 3 Norte 8 Noroeste 0 -- -- 73
2019-10-31 11:00:00 12.8 3 Norte 8 Noroeste 0 -- -- 85
2019-10-31 10:00:00 11.2 4 Noroeste 11 Norte 0 -- -- 94
2019-10-31 09:00:00 10.2 4 Norte 10 Norte 0 -- -- 98
2019-10-31 08:00:00 10.2 6 Noroeste 13 Noroeste 0 -- -- 97
2019-10-31 07:00:00 10 3 Noroeste 5 Nordeste 0 -- -- 97
2019-10-31 06:00:00 10.8 4 Nordeste 15 Oeste 0 -- -- 96
2019-10-31 05:00:00 11.1 9 Oeste 14 Oeste 0 -- -- 96
2019-10-31 04:00:00 10.8 2 Noroeste 9 Noroeste 0 -- -- 95
2019-10-31 03:00:00 11.5 4 Noroeste 16 Oeste 0 -- -- 95
2019-10-31 02:00:00 12.2 11 Oeste 22 Oeste 0 -- -- 94
2019-10-31 01:00:00 12.6 2 Norte 20 Oeste 0 -- -- 94
2019-10-31 00:00:00 13.1 10 Oeste 22 Oeste 0 -- -- 94
2019-10-30 23:00:00 13.1 14 Oeste 22 Oeste 0 -- -- 94
2019-10-30 22:00:00 13.1 16 Oeste 25 Oeste 0 -- -- 95
2019-10-30 21:00:00 13.1 12 Sudoeste 22 Sudoeste 0.2 -- -- 97
2019-10-30 20:00:00 13.1 12 Sudoeste 18 Sudoeste 0.2 -- -- 97
2019-10-30 19:00:00 13.1 9 Sudoeste 18 Sudoeste 0 -- -- 95
2019-10-30 18:00:00 13.6 12 Sudoeste 32 Sudoeste 0 -- -- 91
2019-10-30 17:00:00 14.1 16 Sudoeste 24 Sudoeste 0 -- -- 86
2019-10-30 16:00:00 13.8 16 Sudoeste 26 Oeste 0 -- -- 87
2019-10-30 15:00:00 13.9 14 Sudoeste 23 Sudoeste 0 -- -- 88
2019-10-30 14:00:00 13.4 18 Sudoeste 27 Sudoeste 0 -- -- 89
2019-10-30 13:00:00 13.3 12 Sudoeste 19 Sudoeste 0 -- -- 90
2019-10-30 12:00:00 13.3 12 Oeste 24 Oeste 0 -- -- 90
2019-10-30 11:00:00 13 17 Oeste 23 Sudoeste 0 -- -- 91
2019-10-30 10:00:00 12.6 11 Oeste 22 Oeste 0 -- -- 92
2019-10-30 09:00:00 12.2 9 Oeste 14 Sudoeste 0 -- -- 95
2019-10-30 08:00:00 11.7 9 Oeste 17 Sudoeste 0 -- -- 97
2019-10-30 07:00:00 11.4 9 Sudoeste 15 Oeste 0 -- -- 97
2019-10-30 06:00:00 10.4 4 Sur 5 Sur 0 -- -- 96
2019-10-30 05:00:00 9.8 3 Este 6 Sudoeste 0 -- -- 95
2019-10-30 04:00:00 9.2 2 Sudeste 5 Oeste 0 -- -- 96
2019-10-30 03:00:00 8.8 0 Calma 6 Este 0 -- -- 96
2019-10-30 02:00:00 7.8 0 Calma 8 Nordeste 0 -- -- 96
2019-10-30 01:00:00 6.9 3 Noroeste 8 Nordeste 0 -- -- 96
2019-10-30 00:00:00 7.1 3 Norte 9 Norte 0 -- -- 95
2019-10-29 23:00:00 7.8 0 Calma 13 Nordeste 0 -- -- 92
2019-10-29 22:00:00 8.1 6 Nordeste 12 Nordeste 0 -- -- 92
2019-10-29 21:00:00 8.2 3 Norte 9 Sudoeste 0 -- -- 92
2019-10-29 20:00:00 9.9 2 Sudeste 4 Nordeste 0 -- -- 88
2019-10-29 19:00:00 12.5 3 Sudoeste 17 Sudoeste 0 -- -- 79
2019-10-29 18:00:00 14.5 12 Sudoeste 19 Sudoeste 0 -- -- 70
2019-10-29 17:00:00 16.8 15 Sudoeste 25 Sudoeste 0 -- -- 60
2019-10-29 16:00:00 16.4 14 Sudoeste 31 Sudoeste 0 -- -- 64
2019-10-29 15:00:00 16.1 14 Sudoeste 32 Sudoeste 0 -- -- 67
2019-10-29 14:00:00 16.4 15 Sur 22 Sur 0 -- -- 72
2019-10-29 13:00:00 14.7 11 Sudoeste 20 Sudoeste 0 -- -- 82
2019-10-29 12:00:00 13.8 12 Sudoeste 18 Sudoeste 0 -- -- 87
2019-10-29 11:00:00 13.5 11 Sudoeste 18 Sudoeste 0 -- -- 89
2019-10-29 10:00:00 12.5 6 Sur 11 Sur 0 -- -- 96
2019-10-29 09:00:00 11.9 2 Sudeste 8 Sur 0 -- -- 97
2019-10-29 08:00:00 11.3 6 Sur 8 Sur 0 -- -- 97
2019-10-29 07:00:00 11 4 Sudeste 7 Sudeste 0 -- -- 97
2019-10-29 06:00:00 10.7 6 Sur 10 Sur 0 -- -- 97
2019-10-29 05:00:00 10.3 2 Sudeste 6 Este 0 -- -- 98
2019-10-29 04:00:00 9.2 2 Sudeste 7 Sudoeste 0 -- -- 98
2019-10-29 03:00:00 8.5 6 Sur 10 Sur 0 -- -- 97
2019-10-29 02:00:00 7.4 3 Nordeste 6 Nordeste 0 -- -- 96
2019-10-29 01:00:00 8.2 0 Calma 6 Nordeste 0 -- -- 95
2019-10-29 00:00:00 9.2 6 Nordeste 9 Nordeste 0 -- -- 95
2019-10-28 23:00:00 10.1 3 Norte 9 Norte 0 -- -- 91
2019-10-28 22:00:00 10.5 4 Nordeste 7 Nordeste 0 -- -- 90
2019-10-28 21:00:00 11.2 3 Sudoeste 7 Sudoeste 0 -- -- 88
2019-10-28 20:00:00 12.3 2 Este 5 Sur 0 -- -- 85
2019-10-28 19:00:00 14.3 3 Sur 11 Sudoeste 0 -- -- 78
2019-10-28 18:00:00 16.4 8 Sudoeste 16 Oeste 0 -- -- 69
2019-10-28 17:00:00 17.7 14 Oeste 30 Sudoeste 0 -- -- 61
2019-10-28 16:00:00 18.4 16 Oeste 30 Sudoeste 0 -- -- 55
2019-10-28 15:00:00 18.6 16 Sudoeste 27 Oeste 0 -- -- 57
2019-10-28 14:00:00 18 18 Oeste 27 Oeste 0 -- -- 56
2019-10-28 13:00:00 18.1 14 Oeste 27 Oeste 0 -- -- 60
2019-10-28 12:00:00 16.7 13 Sudoeste 20 Oeste 0 -- -- 66
2019-10-28 11:00:00 13.5 2 Sur 5 Sur 0 -- -- 88
2019-10-28 10:00:00 10.5 3 Oeste 6 Este 0 -- -- 95
2019-10-28 09:00:00 8.4 0 Calma 9 Norte 0 -- -- 97
2019-10-28 08:00:00 7.9 3 Nordeste 5 Este 0 -- -- 95
2019-10-28 07:00:00 9 0 Calma 10 Nordeste 0 -- -- 95
2019-10-28 06:00:00 9.5 3 Nordeste 9 Norte 0 -- -- 92
2019-10-28 05:00:00 9.2 2 Nordeste 9 Nordeste 0 -- -- 96
2019-10-28 04:00:00 9.2 3 Oeste 10 Sur 0 -- -- 95
2019-10-28 03:00:00 9.5 0 Calma 7 Norte 0 -- -- 94
2019-10-28 02:00:00 9.9 3 Norte 12 Norte 0 -- -- 94
2019-10-28 01:00:00 9.7 4 Norte 11 Norte 0 -- -- 95
2019-10-28 00:00:00 9.8 2 Norte 8 Nordeste 0 -- -- 93
2019-10-27 23:00:00 10.1 4 Norte 7 Este 0 -- -- 95
2019-10-27 22:00:00 10.5 6 Nordeste 9 Nordeste 0 -- -- 94
2019-10-27 21:00:00 11.1 0 Calma 6 Nordeste 0 -- -- 92
2019-10-27 20:00:00 12.2 3 Sudeste 9 Sur 0 -- -- 88
2019-10-27 19:00:00 12.7 5 Sudeste 8 Sudeste 0 -- -- 87
2019-10-27 18:00:00 14.2 4 Sur 12 Sur 0 -- -- 83
2019-10-27 17:00:00 15.5 10 Sur 12 Sudoeste 0 -- -- 78
2019-10-27 16:00:00 16.8 6 Sudoeste 17 Oeste 0 -- -- 68
2019-10-27 15:00:00 16.1 7 Sudoeste 12 Sudoeste 0 -- -- 74
2019-10-27 14:00:00 14.4 6 Sur 11 Sur 0 -- -- 81
2019-10-27 13:00:00 13.8 5 Sur 9 Oeste 0 -- -- 84
2019-10-27 12:00:00 12.4 0 Calma 8 Sudoeste 0 -- -- 85
2019-10-27 11:00:00 11 4 Sudeste 8 Sudeste 0 -- -- 94
2019-10-27 10:00:00 8.7 0 Calma 6 Nordeste 0 -- -- 97
2019-10-27 09:00:00 7.1 4 Norte 10 Nordeste 0 -- -- 97
2019-10-27 08:00:00 6.3 0 Calma 9 Norte 0 -- -- 96
2019-10-27 07:00:00 5.9 0 Calma 7 Nordeste 0 -- -- 96
2019-10-27 06:00:00 5.9 3 Norte 9 Nordeste 0 -- -- 96
2019-10-27 05:00:00 6.9 5 Norte 10 Norte 0 -- -- 96
2019-10-27 04:00:00 5.8 2 Norte 8 Nordeste 0 -- -- 97
2019-10-27 03:00:00 5.9 0 Calma 6 Norte 0 -- -- 96
2019-10-27 02:00:00 6.4 5 Norte 11 Norte 0 -- -- 95
2019-10-27 01:00:00 6.4 3 Norte 7 Norte 0 -- -- 95
2019-10-27 00:00:00 6.9 5 Norte 8 Norte 0 -- -- 93
2019-10-26 23:00:00 8.2 5 Norte 13 Norte 0 -- -- 90
2019-10-26 22:00:00 8.7 5 Norte 11 Norte 0 -- -- 90
2019-10-26 21:00:00 9.7 4 Norte 6 Nordeste 0 -- -- 87
2019-10-26 20:00:00 11.1 0 Calma 10 Sudoeste 0 -- -- 82
2019-10-26 19:00:00 16.2 8 Sudoeste 19 Sudoeste 0 -- -- 62
2019-10-26 18:00:00 18.1 14 Sudoeste 25 Sudoeste 0 -- -- 56
2019-10-26 17:00:00 18.5 14 Sudoeste 22 Sudoeste 0 -- -- 57
2019-10-26 16:00:00 18.3 16 Sudoeste 26 Sudoeste 0 -- -- 57
2019-10-26 15:00:00 17.4 12 Sudoeste 21 Sudoeste 0 -- -- 64
2019-10-26 14:00:00 16.2 12 Sur 18 Sudoeste 0 -- -- 73
2019-10-26 13:00:00 14.2 5 Sur 9 Sur 0 -- -- 84
2019-10-26 12:00:00 11 5 Sur 8 Sur 0 -- -- 98
2019-10-26 11:00:00 7.4 4 Sudoeste 6 Sur 0 -- -- 100
2019-10-26 10:00:00 4 0 Calma 13 Noroeste 0 -- -- 99
2019-10-26 09:00:00 2.8 0 Calma 13 Norte 0 -- -- 97
2019-10-26 08:00:00 2.8 4 Norte 9 Norte 0 -- -- 98
2019-10-26 07:00:00 2.1 4 Norte 7 Norte 0 -- -- 97
2019-10-26 06:00:00 2.8 3 Norte 10 Norte 0 -- -- 96
2019-10-26 05:00:00 3.7 4 Norte 10 Norte 0 -- -- 96
2019-10-26 04:00:00 4.8 6 Norte 12 Norte 0 -- -- 97
2019-10-26 03:00:00 4.6 5 Nordeste 11 Norte 0 -- -- 96
2019-10-26 02:00:00 5.4 5 Norte 10 Norte 0 -- -- 96
2019-10-26 01:00:00 5.9 7 Nordeste 13 Norte 0 -- -- 95
2019-10-26 00:00:00 6.4 4 Norte 10 Noroeste 0 -- -- 95
2019-10-25 23:00:00 6.3 5 Nordeste 9 Nordeste 0 -- -- 94
2019-10-25 22:00:00 7.5 3 Norte 6 Norte 0 -- -- 93
2019-10-25 21:00:00 8 0 Calma 5 Sur 0 -- -- 92
2019-10-25 20:00:00 10.7 0 Calma 12 Sudoeste 0 -- -- 84
2019-10-25 19:00:00 14.5 8 Sudoeste 18 Sudoeste 0 -- -- 70
2019-10-25 18:00:00 15.9 12 Sudoeste 23 Sudoeste 0 -- -- 62
2019-10-25 17:00:00 16 10 Sudoeste 24 Oeste 0 -- -- 65
2019-10-25 16:00:00 15.2 13 Oeste 21 Sudoeste 0 -- -- 64
2019-10-25 15:00:00 14.5 10 Oeste 20 Sudoeste 0 -- -- 72
2019-10-25 14:00:00 13.7 13 Oeste 22 Oeste 0 -- -- 74
2019-10-25 13:00:00 11.8 13 Oeste 21 Sudoeste 0 -- -- 82
2019-10-25 12:00:00 10.4 4 Sudoeste 10 Oeste 0 -- -- 94
2019-10-25 11:00:00 9.2 8 Oeste 15 Oeste 0 -- -- 97
2019-10-25 10:00:00 8.9 8 Sudoeste 10 Sudoeste 0 -- -- 99
2019-10-25 09:00:00 8.7 5 Sur 8 Sur 0 -- -- 99
2019-10-25 08:00:00 8.6 3 Sudoeste 8 Oeste 0 -- -- 99
2019-10-25 07:00:00 8.5 5 Oeste 10 Oeste 0 -- -- 99
2019-10-25 06:00:00 8.6 4 Sur 9 Sur 0 -- -- 99
2019-10-25 05:00:00 8.4 4 Sur 13 Sur 0 -- -- 98
2019-10-25 04:00:00 8.4 8 Sur 11 Sur 0 -- -- 98
2019-10-25 03:00:00 8.1 6 Sur 10 Sur 0 -- -- 98
2019-10-25 02:00:00 7.8 6 Sur 10 Sudeste 0 -- -- 96
2019-10-25 01:00:00 9 2 Noroeste 10 Noroeste 0 -- -- 96
2019-10-25 00:00:00 9.8 9 Sudoeste 20 Sudoeste 0 -- -- 96
2019-10-24 23:00:00 10.1 7 Sudoeste 16 Sur 0 -- -- 94
2019-10-24 22:00:00 10.9 6 Sudoeste 24 Sudoeste 0 -- -- 93
2019-10-24 21:00:00 11.1 11 Sur 22 Sur 0 -- -- 95
2019-10-24 20:00:00 11 8 Sur 12 Sur 0 -- -- 94
2019-10-24 19:00:00 11.2 9 Sudoeste 19 Sudoeste 0 -- -- 92
2019-10-24 18:00:00 11.2 9 Sudoeste 18 Sudoeste 0 -- -- 91
2019-10-24 17:00:00 11.3 13 Sudoeste 23 Sudoeste 0 -- -- 84
2019-10-24 16:00:00 11.3 16 Sudoeste 29 Sudoeste 0 -- -- 80
2019-10-24 15:00:00 11.2 21 Oeste 32 Oeste 0 -- -- 83
2019-10-24 14:00:00 9.4 12 Sudoeste 26 Oeste 0 -- -- 89
2019-10-24 13:00:00 8.5 13 Sudoeste 21 Sudoeste 0 -- -- 89
2019-10-24 12:00:00 7.3 10 Sudoeste 18 Oeste 0 -- -- 92
2019-10-24 11:00:00 6.6 8 Oeste 19 Oeste 0 -- -- 92
2019-10-24 10:00:00 5.8 8 Oeste 14 Oeste 0 -- -- 93
2019-10-24 09:00:00 5.4 12 Oeste 21 Oeste 0 -- -- 93
2019-10-24 08:00:00 5.4 7 Oeste 19 Oeste 0 -- -- 91
2019-10-24 07:00:00 5.4 13 Oeste 18 Oeste 0 -- -- 92
2019-10-24 06:00:00 5.5 9 Oeste 15 Oeste 0 -- -- 95
2019-10-24 05:00:00 5.3 8 Sudoeste 13 Sur 0.2 -- -- 97
2019-10-24 04:00:00 5.1 5 Sur 10 Sudoeste 2 -- -- 96
2019-10-24 03:00:00 5.1 6 Oeste 16 Oeste 2 -- -- 94
2019-10-24 02:00:00 5.2 6 Noroeste 14 Noroeste 2 -- -- 93
2019-10-24 01:00:00 5.3 4 Noroeste 17 Norte 3.2 -- -- 95
2019-10-24 00:00:00 5.5 10 Norte 23 Oeste 2.8 -- -- 92
2019-10-23 23:00:00 6 9 Noroeste 23 Noroeste 2.4 -- -- 92
2019-10-23 22:00:00 6.7 6 Noroeste 16 Noroeste 2.4 -- -- 91
2019-10-23 21:00:00 7.7 4 Noroeste 12 Noroeste 1.6 -- -- 93
2019-10-23 20:00:00 9.1 7 Sudoeste 10 Sudoeste 0 -- -- 89
2019-10-23 19:00:00 9.8 5 Sur 10 Sudoeste 0 -- -- 91
2019-10-23 18:00:00 10.3 6 Sudoeste 11 Sudoeste 0 -- -- 87
2019-10-23 17:00:00 10.1 3 Sudoeste 6 Sudoeste 0 -- -- 85
2019-10-23 16:00:00 9.6 4 Sur 10 Noroeste 0 -- -- 88
2019-10-23 15:00:00 9.2 4 Oeste 9 Noroeste 0.2 -- -- 91
2019-10-23 14:00:00 8.5 4 Este 25 Norte 1.2 -- -- 95
2019-10-23 13:00:00 8.6 15 Noroeste 43 Noroeste 1.4 -- -- 91
2019-10-23 12:00:00 8.1 13 Noroeste 27 Norte 7 -- -- 97
2019-10-23 11:00:00 8.1 7 Oeste 12 Noroeste 3.2 -- -- 95
2019-10-23 10:00:00 8.5 4 Oeste 24 Nordeste 1.6 -- -- 94
2019-10-23 09:00:00 8.4 12 Nordeste 29 Nordeste 1.6 -- -- 93
2019-10-23 08:00:00 9.2 15 Nordeste 28 Nordeste 0.2 -- -- 86
2019-10-23 07:00:00 10 12 Nordeste 31 Nordeste 0 -- -- 78
2019-10-23 06:00:00 10.3 16 Nordeste 38 Nordeste 0 -- -- 73
2019-10-23 05:00:00 9.8 18 Nordeste 31 Nordeste 0 -- -- 75
2019-10-23 04:00:00 9.6 13 Norte 31 Norte 0 -- -- 76
2019-10-23 03:00:00 8.9 11 Norte 40 Norte 0 -- -- 78
2019-10-23 02:00:00 8.8 15 Nordeste 30 Norte 0 -- -- 77
2019-10-23 01:00:00 7.7 11 Norte 24 Nordeste 0.2 -- -- 81
2019-10-23 00:00:00 6.8 6 Nordeste 18 Norte 0 -- -- 86
2019-10-22 23:00:00 6.5 9 Nordeste 17 Norte 0.2 -- -- 88
2019-10-22 22:00:00 6.5 7 Nordeste 17 Norte 0 -- -- 92
2019-10-22 21:00:00 6.8 6 Norte 16 Nordeste 0 -- -- 88
2019-10-22 20:00:00 7.1 6 Norte 18 Norte 0.2 -- -- 88
2019-10-22 19:00:00 7.9 5 Norte 19 Nordeste 0 -- -- 83
2019-10-22 18:00:00 8.3 13 Nordeste 35 Nordeste 0 -- -- 81
2019-10-22 17:00:00 8.2 10 Nordeste 33 Nordeste 0 -- -- 85
2019-10-22 16:00:00 8.4 17 Nordeste 36 Nordeste 0 -- -- 86
2019-10-22 15:00:00 9.3 18 Nordeste 42 Nordeste 0 -- -- 76
2019-10-22 14:00:00 9.1 17 Nordeste 44 Nordeste 0 -- -- 77
2019-10-22 13:00:00 8.8 24 Nordeste 40 Nordeste 0 -- -- 77
2019-10-22 12:00:00 7.2 14 Nordeste 28 Nordeste 0 -- -- 82
2019-10-22 11:00:00 6.1 12 Nordeste 23 Nordeste 0 -- -- 86
2019-10-22 10:00:00 4.5 6 Nordeste 12 Este 0 -- -- 93
2019-10-22 09:00:00 4 4 Nordeste 17 Nordeste 0 -- -- 93
2019-10-22 08:00:00 4.6 12 Nordeste 22 Nordeste 0 -- -- 95
2019-10-22 07:00:00 4.7 15 Nordeste 32 Nordeste 0 -- -- 95
2019-10-22 06:00:00 4.6 12 Nordeste 26 Nordeste 0 -- -- 97
2019-10-22 05:00:00 4.6 10 Este 18 Nordeste 0 -- -- 97
2019-10-22 04:00:00 3.7 4 Norte 9 Norte 0 -- -- 97
2019-10-22 03:00:00 3.8 5 Norte 13 Nordeste 0 -- -- 96
2019-10-22 02:00:00 4.2 8 Nordeste 13 Este 0 -- -- 95
2019-10-22 01:00:00 5 7 Nordeste 11 Nordeste 0 -- -- 94
2019-10-22 00:00:00 5.7 5 Nordeste 17 Este 0 -- -- 92